Time;durP1;ratioP1;P1;durP2;ratioP2;P2;SDS_P1;SDS_P2;PMS_P1;PMS_P2;Temp;Humidity;BMP_temperature;BMP_pressure;BME280_temperature;BME280_humidity;BME280_pressure;Samples;Min_cycle;Max_cycle;Signal;HPM_P1;HPM_P2
2022/04/30 00:01:18;;;;;;;10.02;7.30;;;;;;;;;;4950993;29;20218;-61
2022/04/30 00:03:45;;;;;;;8.57;6.80;;;;;;;;;;4951492;28;20195;-61
2022/04/30 00:06:12;;;;;;;13.05;7.03;;;;;;;;;;4950375;29;20250;-61
2022/04/30 00:08:39;;;;;;;12.15;7.32;;;;;;;;;;4951131;28;20235;-61
2022/04/30 00:11:08;;;;;;;10.63;7.05;;;;;;;;;;4950751;29;20662;-60
2022/04/30 00:13:37;;;;;;;10.98;6.90;;;;;;;;;;4951644;28;20207;-60
2022/04/30 00:16:04;;;;;;;11.07;7.10;;;;;;;;;;4951524;29;20218;-60
2022/04/30 00:18:31;;;;;;;9.18;7.25;;;;;;;;;;4951583;28;20199;-60
2022/04/30 00:20:59;;;;;;;10.27;7.18;;;;;;;;;;4951473;29;20219;-60
2022/04/30 00:23:27;;;;;;;9.88;6.72;;;;;;;;;;4951063;29;20214;-60
2022/04/30 00:25:55;;;;;;;11.40;7.05;;;;;;;;;;4951247;29;20212;-60
2022/04/30 00:28:24;;;;;;;10.18;7.05;;;;;;;;;;4951041;29;20306;-60
2022/04/30 00:30:52;;;;;;;8.95;6.60;;;;;;;;;;4951157;29;20214;-60
2022/04/30 00:33:20;;;;;;;15.77;6.85;;;;;;;;;;4951212;28;20681;-60
2022/04/30 00:35:48;;;;;;;11.90;7.40;;;;;;;;;;4951040;29;20223;-60
2022/04/30 00:38:15;;;;;;;11.40;7.38;;;;;;;;;;4951121;29;20727;-60
2022/04/30 00:40:43;;;;;;;9.70;6.80;;;;;;;;;;4950935;29;20203;-60
2022/04/30 00:43:10;;;;;;;15.63;7.05;;;;;;;;;;4950956;29;20302;-60
2022/04/30 00:45:45;;;;;;;12.05;7.60;;;;;;;;;;4950870;28;20207;-60
2022/04/30 00:48:12;;;;;;;8.60;6.80;;;;;;;;;;4950922;29;20203;-60
2022/04/30 00:50:41;;;;;;;9.32;6.78;;;;;;;;;;4950626;28;20917;-61
2022/04/30 00:53:08;;;;;;;12.53;7.43;;;;;;;;;;4950327;29;20214;-60
2022/04/30 00:55:36;;;;;;;12.13;6.97;;;;;;;;;;4950329;29;20718;-60
2022/04/30 00:58:05;;;;;;;11.63;7.70;;;;;;;;;;4947864;28;20219;-60
2022/04/30 01:00:33;;;;;;;15.80;7.77;;;;;;;;;;4947985;29;20291;-60
2022/04/30 01:03:04;;;;;;;11.17;6.90;;;;;;;;;;4951094;28;20563;-59
2022/04/30 01:05:31;;;;;;;9.07;6.67;;;;;;;;;;4948470;28;20274;-59
2022/04/30 01:07:58;;;;;;;12.37;7.20;;;;;;;;;;4950514;28;20218;-59
2022/04/30 01:10:25;;;;;;;9.27;6.97;;;;;;;;;;4952641;28;20214;-59
2022/04/30 01:12:52;;;;;;;7.90;6.40;;;;;;;;;;4950421;29;20922;-59
2022/04/30 01:15:19;;;;;;;11.00;6.73;;;;;;;;;;4958964;28;20234;-63
2022/04/30 01:17:47;;;;;;;11.00;6.60;;;;;;;;;;4950869;29;20223;-60
2022/04/30 01:20:15;;;;;;;13.67;7.23;;;;;;;;;;4956099;28;20281;-60
2022/04/30 01:22:53;;;;;;;12.43;6.70;;;;;;;;;;4950193;29;20592;-60
2022/04/30 01:25:21;;;;;;;12.40;7.47;;;;;;;;;;4955709;28;20344;-60
2022/04/30 01:27:48;;;;;;;9.20;6.77;;;;;;;;;;4950335;29;20273;-60
2022/04/30 01:30:16;;;;;;;8.80;6.53;;;;;;;;;;4965972;28;20210;-59
2022/04/30 01:38:15;;;;;;;13.37;6.87;;;;;;;;;;4949762;29;20242;-60
2022/04/30 01:40:42;;;;;;;12.10;6.77;;;;;;;;;;4958584;28;20559;-59
2022/04/30 01:43:09;;;;;;;9.03;6.53;;;;;;;;;;4950220;29;20207;-60
2022/04/30 01:45:37;;;;;;;10.67;6.80;;;;;;;;;;4958392;28;20619;-60
2022/04/30 01:48:04;;;;;;;13.03;7.03;;;;;;;;;;4950028;29;20647;-60
2022/04/30 01:50:32;;;;;;;9.00;6.27;;;;;;;;;;4958416;28;20646;-60
2022/04/30 01:52:59;;;;;;;11.57;6.87;;;;;;;;;;4950034;29;20211;-60
2022/04/30 01:55:28;;;;;;;10.50;7.27;;;;;;;;;;4965052;28;20222;-60
2022/04/30 01:57:55;;;;;;;12.50;6.60;;;;;;;;;;4956653;28;20262;-60
2022/04/30 02:00:22;;;;;;;10.20;6.10;;;;;;;;;;4963719;28;20657;-60
2022/04/30 02:02:50;;;;;;;7.67;6.20;;;;;;;;;;4957657;28;20207;-60
2022/04/30 02:05:18;;;;;;;10.20;6.83;;;;;;;;;;4960798;28;20844;-60
2022/04/30 02:07:49;;;;;;;7.17;5.87;;;;;;;;;;4946305;29;20203;-60
2022/04/30 02:10:18;;;;;;;7.90;6.47;;;;;;;;;;4947728;28;20305;-60
2022/04/30 02:12:46;;;;;;;8.97;6.70;;;;;;;;;;4949926;29;20211;-61
2022/04/30 02:15:15;;;;;;;7.13;5.90;;;;;;;;;;4947558;29;20262;-61
2022/04/30 02:17:42;;;;;;;10.03;6.63;;;;;;;;;;4949395;29;20219;-60
2022/04/30 02:20:26;;;;;;;8.33;6.60;;;;;;;;;;4949195;29;20527;-60
2022/04/30 02:22:54;;;;;;;11.50;6.97;;;;;;;;;;4949532;29;20207;-61
2022/04/30 02:25:22;;;;;;;10.47;7.00;;;;;;;;;;4949146;29;20286;-61
2022/04/30 02:27:51;;;;;;;12.17;6.90;;;;;;;;;;4949423;29;20222;-61
2022/04/30 02:30:19;;;;;;;8.07;6.00;;;;;;;;;;4949206;29;20211;-61
2022/04/30 02:32:48;;;;;;;10.93;6.27;;;;;;;;;;4949904;28;20678;-61
2022/04/30 02:35:15;;;;;;;10.80;6.57;;;;;;;;;;4949786;29;20231;-61
2022/04/30 02:37:45;;;;;;;10.43;5.93;;;;;;;;;;4949303;29;20305;-61
2022/04/30 02:40:13;;;;;;;10.57;6.43;;;;;;;;;;4949029;29;20294;-60
2022/04/30 02:42:41;;;;;;;9.13;6.57;;;;;;;;;;4949311;29;20211;-61
2022/04/30 02:45:10;;;;;;;9.30;6.30;;;;;;;;;;4949356;29;20211;-61
2022/04/30 02:47:38;;;;;;;10.13;6.50;;;;;;;;;;4949354;28;20274;-61
2022/04/30 02:50:05;;;;;;;8.67;5.97;;;;;;;;;;4949095;29;20301;-61
2022/04/30 02:52:32;;;;;;;6.43;5.27;;;;;;;;;;4949377;29;20256;-61
2022/04/30 02:54:59;;;;;;;7.30;5.53;;;;;;;;;;4949051;29;20235;-60
2022/04/30 02:57:27;;;;;;;5.80;5.00;;;;;;;;;;4949454;29;20229;-61
2022/04/30 02:59:53;;;;;;;5.13;4.53;;;;;;;;;;4948911;29;20476;-61
2022/04/30 03:02:21;;;;;;;6.90;4.20;;;;;;;;;;4949351;29;20210;-61
2022/04/30 03:04:51;;;;;;;3.83;3.60;;;;;;;;;;4948603;28;20702;-61
2022/04/30 03:07:18;;;;;;;5.23;4.67;;;;;;;;;;4949111;29;20218;-61
2022/04/30 03:09:47;;;;;;;3.30;3.00;;;;;;;;;;4955762;28;20239;-61
2022/04/30 03:12:14;;;;;;;4.50;4.10;;;;;;;;;;4949245;29;20326;-61
2022/04/30 03:14:41;;;;;;;4.30;3.90;;;;;;;;;;4954330;28;20290;-61
2022/04/30 03:22:39;;;;;;;4.30;4.00;;;;;;;;;;4953563;28;20214;-61
2022/04/30 03:25:08;;;;;;;4.50;4.07;;;;;;;;;;4966520;28;20206;-61
2022/04/30 03:27:35;;;;;;;3.73;3.43;;;;;;;;;;4967947;28;20215;-60
2022/04/30 03:30:03;;;;;;;5.60;4.00;;;;;;;;;;4953063;28;20281;-60
2022/04/30 03:32:31;;;;;;;3.67;3.47;;;;;;;;;;4959425;28;20317;-61
2022/04/30 03:34:59;;;;;;;4.67;4.13;;;;;;;;;;4971697;28;20246;-61
2022/04/30 03:37:26;;;;;;;3.43;3.23;;;;;;;;;;4967236;28;20671;-61
2022/04/30 03:39:54;;;;;;;3.60;3.27;;;;;;;;;;4969487;28;20436;-60
2022/04/30 03:42:21;;;;;;;5.60;3.90;;;;;;;;;;4952245;28;20589;-61
2022/04/30 03:44:53;;;;;;;4.23;3.87;;;;;;;;;;4951646;29;20289;-61
2022/04/30 03:47:20;;;;;;;5.67;3.67;;;;;;;;;;4949241;28;20207;-61
2022/04/30 03:49:47;;;;;;;3.57;3.27;;;;;;;;;;4967125;28;20207;-61
2022/04/30 03:52:15;;;;;;;5.33;4.50;;;;;;;;;;4951295;29;20215;-61
2022/04/30 03:54:42;;;;;;;4.20;3.80;;;;;;;;;;4953333;28;20214;-61
2022/04/30 03:57:09;;;;;;;5.20;3.80;;;;;;;;;;4970317;28;20210;-61
2022/04/30 03:59:36;;;;;;;5.33;4.00;;;;;;;;;;4951694;28;20242;-62
2022/04/30 04:02:03;;;;;;;4.70;3.77;;;;;;;;;;4952011;29;20727;-61
2022/04/30 04:04:31;;;;;;;4.90;3.47;;;;;;;;;;4951994;28;20270;-61
2022/04/30 04:06:59;;;;;;;4.17;3.83;;;;;;;;;;4952097;28;20659;-60
2022/04/30 04:09:27;;;;;;;4.53;4.13;;;;;;;;;;4951818;29;20235;-61
2022/04/30 04:11:55;;;;;;;4.57;3.93;;;;;;;;;;4951808;29;20580;-61
2022/04/30 04:19:51;;;;;;;4.83;4.43;;;;;;;;;;4945262;29;20206;-61
2022/04/30 04:22:18;;;;;;;5.03;3.53;;;;;;;;;;4951369;29;20237;-61
2022/04/30 04:27:31;;;;;;;4.73;4.33;;;;;;;;;;4951861;29;20222;-61
2022/04/30 04:29:58;;;;;;;5.40;4.90;;;;;;;;;;4951427;29;20211;-61
2022/04/30 04:32:25;;;;;;;5.20;4.53;;;;;;;;;;4951053;28;20692;-61
2022/04/30 04:34:53;;;;;;;5.47;4.97;;;;;;;;;;4950989;29;20199;-61
2022/04/30 04:37:21;;;;;;;6.93;4.77;;;;;;;;;;4951395;29;20233;-61
2022/04/30 04:39:49;;;;;;;5.63;5.07;;;;;;;;;;4950985;29;20203;-61
2022/04/30 04:42:19;;;;;;;5.60;3.73;;;;;;;;;;4951302;29;20203;-60
2022/04/30 04:44:47;;;;;;;5.67;5.10;;;;;;;;;;4951032;29;20662;-61
2022/04/30 04:47:14;;;;;;;5.90;5.30;;;;;;;;;;4949968;29;20211;-61
2022/04/30 04:49:41;;;;;;;7.27;5.23;;;;;;;;;;4950895;29;20207;-61
2022/04/30 04:52:10;;;;;;;3.73;3.43;;;;;;;;;;4950992;29;20238;-60
2022/04/30 04:54:37;;;;;;;4.53;4.13;;;;;;;;;;4951124;29;20306;-60
2022/04/30 04:57:06;;;;;;;4.70;4.00;;;;;;;;;;4945355;29;20657;-61
2022/04/30 04:59:33;;;;;;;7.20;5.07;;;;;;;;;;4931636;29;20216;-61
2022/04/30 05:02:00;;;;;;;6.00;4.97;;;;;;;;;;4950207;29;20211;-61
2022/04/30 05:04:27;;;;;;;7.97;5.90;;;;;;;;;;4951084;28;20211;-60
2022/04/30 05:06:54;;;;;;;8.00;6.40;;;;;;;;;;4949502;28;20808;-61
2022/04/30 05:09:21;;;;;;;6.97;5.77;;;;;;;;;;4951256;28;20238;-60
2022/04/30 05:11:48;;;;;;;5.90;4.87;;;;;;;;;;4951043;29;20733;-60
2022/04/30 05:14:16;;;;;;;6.57;5.60;;;;;;;;;;4950749;29;20265;-61
2022/04/30 05:16:43;;;;;;;9.37;6.03;;;;;;;;;;4950213;29;20720;-60
2022/04/30 05:19:10;;;;;;;6.73;6.07;;;;;;;;;;4950815;29;20215;-59
2022/04/30 05:21:37;;;;;;;8.53;6.07;;;;;;;;;;4950271;29;20265;-61
2022/04/30 05:24:05;;;;;;;7.73;6.33;;;;;;;;;;4950412;29;20255;-60
2022/04/30 05:26:33;;;;;;;9.00;6.77;;;;;;;;;;4950540;29;20215;-60
2022/04/30 05:29:00;;;;;;;8.10;6.83;;;;;;;;;;4950348;29;20302;-61
2022/04/30 05:31:28;;;;;;;6.97;6.23;;;;;;;;;;4950567;29;20207;-61
2022/04/30 05:33:55;;;;;;;9.30;6.57;;;;;;;;;;4950374;29;20266;-61
2022/04/30 05:36:22;;;;;;;7.80;6.60;;;;;;;;;;4950020;29;20335;-60
2022/04/30 05:38:51;;;;;;;9.33;6.47;;;;;;;;;;4950532;29;20265;-61
2022/04/30 05:41:18;;;;;;;11.03;7.50;;;;;;;;;;4950274;29;20213;-61
2022/04/30 05:43:45;;;;;;;7.00;6.30;;;;;;;;;;4946474;28;20211;-61
2022/04/30 05:46:13;;;;;;;9.63;6.60;;;;;;;;;;4950103;29;20219;-61
2022/04/30 05:48:41;;;;;;;9.17;6.80;;;;;;;;;;4949431;28;20211;-61
2022/04/30 05:51:08;;;;;;;10.77;7.23;;;;;;;;;;4950072;29;20272;-60
2022/04/30 05:53:35;;;;;;;8.77;7.07;;;;;;;;;;4949073;29;20219;-60
2022/04/30 05:56:02;;;;;;;7.37;6.47;;;;;;;;;;4950399;29;20734;-60
2022/04/30 05:58:29;;;;;;;7.53;6.30;;;;;;;;;;4950012;29;20219;-61
2022/04/30 06:00:56;;;;;;;7.63;6.83;;;;;;;;;;4949870;29;20207;-60
2022/04/30 06:03:23;;;;;;;9.47;6.47;;;;;;;;;;4949509;29;20681;-60
2022/04/30 06:05:52;;;;;;;8.77;6.70;;;;;;;;;;4948866;28;20282;-60
2022/04/30 06:08:19;;;;;;;8.80;7.13;;;;;;;;;;4949962;29;20277;-60
2022/04/30 06:10:46;;;;;;;9.10;6.63;;;;;;;;;;4947572;29;20258;-60
2022/04/30 06:13:13;;;;;;;11.50;7.50;;;;;;;;;;4941739;29;20202;-60
2022/04/30 06:15:40;;;;;;;10.00;7.20;;;;;;;;;;4949144;29;20231;-61
2022/04/30 06:18:08;;;;;;;8.87;6.87;;;;;;;;;;4947648;29;20211;-60
2022/04/30 06:20:35;;;;;;;9.27;7.23;;;;;;;;;;4939301;29;20211;-60
2022/04/30 06:23:03;;;;;;;9.60;7.40;;;;;;;;;;4942770;29;20211;-60
2022/04/30 06:25:30;;;;;;;8.70;7.00;;;;;;;;;;4949308;29;20211;-59
2022/04/30 06:28:01;;;;;;;13.20;7.17;;;;;;;;;;4949609;29;20211;-60
2022/04/30 06:30:28;;;;;;;12.40;7.97;;;;;;;;;;4949511;29;20752;-60
2022/04/30 06:32:55;;;;;;;11.23;7.20;;;;;;;;;;4949914;29;20215;-60
2022/04/30 06:35:22;;;;;;;15.80;7.70;;;;;;;;;;4948120;29;20215;-60
2022/04/30 06:37:49;;;;;;;10.97;7.07;;;;;;;;;;4942113;29;20631;-60
2022/04/30 06:40:17;;;;;;;14.27;7.60;;;;;;;;;;4942256;29;20207;-60
2022/04/30 06:42:45;;;;;;;9.80;7.20;;;;;;;;;;4949626;29;20265;-60
2022/04/30 06:45:12;;;;;;;9.63;7.63;;;;;;;;;;4948844;29;20203;-60
2022/04/30 06:47:39;;;;;;;13.30;8.37;;;;;;;;;;4949181;29;20208;-60
2022/04/30 06:50:07;;;;;;;10.70;7.20;;;;;;;;;;4949515;29;20289;-60
2022/04/30 06:52:34;;;;;;;14.43;8.07;;;;;;;;;;4949007;28;20236;-61
2022/04/30 06:57:47;;;;;;;11.97;7.80;;;;;;;;;;4951316;29;20268;-65
2022/04/30 07:03:02;;;;;;;11.03;7.23;;;;;;;;;;4953317;29;20238;-59
2022/04/30 07:05:29;;;;;;;12.37;7.83;;;;;;;;;;4953209;29;20222;-60
2022/04/30 07:07:56;;;;;;;9.90;7.13;;;;;;;;;;4943417;29;20216;-60
2022/04/30 07:10:23;;;;;;;9.70;7.87;;;;;;;;;;4918083;29;20251;-60
2022/04/30 07:12:52;;;;;;;11.03;7.13;;;;;;;;;;4932531;29;20211;-60
2022/04/30 07:15:19;;;;;;;11.33;6.97;;;;;;;;;;4926231;29;20208;-59
2022/04/30 07:17:46;;;;;;;10.27;7.37;;;;;;;;;;4929849;29;20232;-60
2022/04/30 07:20:13;;;;;;;10.87;7.70;;;;;;;;;;4934295;29;20346;-60
2022/04/30 07:22:40;;;;;;;9.63;6.83;;;;;;;;;;4931727;29;20216;-60
2022/04/30 07:25:08;;;;;;;10.77;6.83;;;;;;;;;;4921514;29;20245;-59
2022/04/30 07:27:35;;;;;;;8.10;7.00;;;;;;;;;;4930605;29;20663;-60
2022/04/30 07:30:04;;;;;;;8.60;6.60;;;;;;;;;;4927072;29;20220;-59
2022/04/30 07:32:31;;;;;;;7.43;6.20;;;;;;;;;;4921144;29;20213;-60
2022/04/30 07:34:58;;;;;;;8.17;7.03;;;;;;;;;;4932815;29;20208;-62
2022/04/30 07:37:25;;;;;;;8.23;6.37;;;;;;;;;;4929741;29;20224;-63
2022/04/30 07:39:52;;;;;;;8.23;6.47;;;;;;;;;;4919459;29;20208;-60
2022/04/30 07:42:19;;;;;;;9.97;7.30;;;;;;;;;;4926614;29;20213;-59
2022/04/30 07:44:46;;;;;;;8.27;6.20;;;;;;;;;;4925841;29;20670;-63
2022/04/30 07:47:14;;;;;;;7.57;6.33;;;;;;;;;;4930798;29;20204;-60
2022/04/30 07:49:41;;;;;;;8.03;6.40;;;;;;;;;;4930919;29;20682;-60
2022/04/30 07:52:09;;;;;;;7.27;5.63;;;;;;;;;;4929974;29;20548;-60
2022/04/30 07:54:36;;;;;;;7.87;6.03;;;;;;;;;;4925306;29;20211;-61
2022/04/30 07:57:03;;;;;;;7.67;6.47;;;;;;;;;;4920296;29;20233;-60
2022/04/30 07:59:30;;;;;;;7.60;6.10;;;;;;;;;;4929155;29;20572;-61
2022/04/30 08:01:57;;;;;;;7.57;5.80;;;;;;;;;;4932159;29;20208;-60
2022/04/30 08:04:26;;;;;;;7.87;6.17;;;;;;;;;;4930430;29;20203;-61
2022/04/30 08:06:53;;;;;;;8.57;5.60;;;;;;;;;;4932548;29;20232;-60
2022/04/30 08:09:20;;;;;;;6.97;5.83;;;;;;;;;;4933505;29;20283;-61
2022/04/30 08:11:47;;;;;;;7.17;5.93;;;;;;;;;;4943409;29;20211;-61
2022/04/30 08:14:14;;;;;;;7.60;5.57;;;;;;;;;;4934801;29;20742;-61
2022/04/30 08:16:41;;;;;;;10.70;6.17;;;;;;;;;;4932845;29;20310;-61
2022/04/30 08:19:09;;;;;;;4.93;4.53;;;;;;;;;;4945194;29;20298;-61
2022/04/30 08:21:38;;;;;;;7.43;5.77;;;;;;;;;;4949543;29;20215;-60
2022/04/30 08:24:06;;;;;;;5.70;4.90;;;;;;;;;;4951253;29;20211;-61
2022/04/30 08:26:33;;;;;;;6.23;5.63;;;;;;;;;;4949374;29;20257;-61
2022/04/30 08:29:00;;;;;;;5.57;5.07;;;;;;;;;;4950889;29;20262;-61
2022/04/30 08:31:27;;;;;;;5.10;4.70;;;;;;;;;;4950996;29;20205;-60
2022/04/30 08:33:54;;;;;;;6.90;4.63;;;;;;;;;;4951203;29;20215;-60
2022/04/30 08:36:21;;;;;;;5.50;5.00;;;;;;;;;;4951188;29;20230;-61
2022/04/30 08:38:50;;;;;;;5.70;4.83;;;;;;;;;;4950065;29;20211;-61
2022/04/30 08:41:17;;;;;;;5.57;4.93;;;;;;;;;;4951351;29;20631;-61
2022/04/30 08:43:47;;;;;;;5.47;4.40;;;;;;;;;;4949863;29;20298;-61
2022/04/30 08:46:14;;;;;;;5.17;4.70;;;;;;;;;;4950954;29;20214;-61
2022/04/30 08:48:42;;;;;;;4.63;4.20;;;;;;;;;;4950412;29;20211;-60
2022/04/30 08:51:09;;;;;;;5.40;4.83;;;;;;;;;;4950828;29;20568;-61
2022/04/30 08:53:36;;;;;;;5.90;4.73;;;;;;;;;;4950909;29;20207;-61
2022/04/30 08:56:09;;;;;;;4.70;4.30;;;;;;;;;;4946622;29;20208;-61
2022/04/30 08:58:36;;;;;;;5.50;4.30;;;;;;;;;;4947741;29;20581;-61
2022/04/30 09:01:04;;;;;;;4.10;3.67;;;;;;;;;;4950807;29;20713;-61
2022/04/30 09:03:34;;;;;;;5.73;4.63;;;;;;;;;;4948895;29;20251;-61
2022/04/30 09:06:23;;;;;;;5.63;3.60;;;;;;;;;;4947253;29;20235;-61
2022/04/30 09:08:51;;;;;;;6.53;3.63;;;;;;;;;;4938709;29;20245;-63
2022/04/30 09:11:27;;;;;;;3.10;2.90;;;;;;;;;;4948405;29;20218;-62
2022/04/30 09:13:54;;;;;;;3.33;3.13;;;;;;;;;;4941957;29;20207;-62
2022/04/30 09:16:22;;;;;;;4.30;3.20;;;;;;;;;;4932481;29;20207;-62
2022/04/30 09:18:50;;;;;;;3.17;3.00;;;;;;;;;;4946748;28;20556;-62
2022/04/30 09:21:18;;;;;;;3.57;3.27;;;;;;;;;;4951034;29;20278;-62
2022/04/30 09:23:46;;;;;;;3.47;3.20;;;;;;;;;;4949511;29;20231;-62
2022/04/30 09:26:13;;;;;;;4.23;3.17;;;;;;;;;;4950469;29;20213;-62
2022/04/30 09:28:42;;;;;;;3.50;3.23;;;;;;;;;;4949602;29;20273;-62
2022/04/30 09:31:11;;;;;;;3.80;3.50;;;;;;;;;;4950968;29;20728;-62
2022/04/30 09:33:38;;;;;;;3.73;2.50;;;;;;;;;;4950151;29;20582;-62
2022/04/30 09:38:51;;;;;;;3.30;3.00;;;;;;;;;;4950230;29;20213;-63
2022/04/30 09:41:23;;;;;;;3.33;3.23;;;;;;;;;;4950565;29;20303;-61
2022/04/30 09:44:01;;;;;;;2.90;2.70;;;;;;;;;;4950576;29;20214;-61
2022/04/30 09:46:29;;;;;;;2.57;2.40;;;;;;;;;;4950498;28;20203;-62
2022/04/30 09:54:28;;;;;;;2.30;2.20;;;;;;;;;;4947046;29;20582;-62
2022/04/30 09:56:56;;;;;;;2.50;2.40;;;;;;;;;;4949836;29;20234;-66
2022/04/30 09:59:24;;;;;;;2.40;2.30;;;;;;;;;;4940878;29;20710;-62
2022/04/30 10:01:51;;;;;;;2.97;2.77;;;;;;;;;;4940725;28;20215;-63
2022/04/30 10:04:18;;;;;;;2.90;2.70;;;;;;;;;;4949870;28;20583;-61
2022/04/30 10:06:53;;;;;;;2.90;2.70;;;;;;;;;;4949159;28;20267;-62
2022/04/30 10:09:22;;;;;;;2.70;2.60;;;;;;;;;;4949505;28;20246;-62
2022/04/30 10:11:55;;;;;;;2.53;2.40;;;;;;;;;;4949851;29;20215;-64
2022/04/30 10:14:30;;;;;;;2.30;2.20;;;;;;;;;;4949511;28;20318;-64
2022/04/30 10:17:16;;;;;;;2.00;1.90;;;;;;;;;;4949539;29;20238;-60
2022/04/30 10:19:45;;;;;;;1.03;1.03;;;;;;;;;;4948450;29;20213;-62
2022/04/30 10:22:12;;;;;;;2.30;2.20;;;;;;;;;;4947851;29;20207;-62
2022/04/30 10:24:46;;;;;;;2.20;2.10;;;;;;;;;;4949656;29;20908;-63
2022/04/30 10:27:13;;;;;;;2.60;2.40;;;;;;;;;;4948854;29;20211;-61
2022/04/30 10:29:53;;;;;;;2.17;2.07;;;;;;;;;;4949723;29;20331;-61
2022/04/30 10:32:30;;;;;;;2.33;2.23;;;;;;;;;;4952733;28;20203;-62
2022/04/30 10:34:57;;;;;;;1.97;1.87;;;;;;;;;;4953405;28;20261;-62
2022/04/30 10:37:28;;;;;;;2.27;2.17;;;;;;;;;;4953211;29;20227;-61
2022/04/30 10:39:59;;;;;;;2.57;2.43;;;;;;;;;;4953397;29;20297;-62
2022/04/30 10:42:30;;;;;;;1.50;1.50;;;;;;;;;;4953119;29;20211;-62
2022/04/30 10:44:58;;;;;;;1.70;1.60;;;;;;;;;;4953353;28;20695;-61
2022/04/30 10:47:26;;;;;;;2.37;2.27;;;;;;;;;;4953243;29;20211;-61
2022/04/30 10:49:53;;;;;;;1.80;1.70;;;;;;;;;;4953292;29;20703;-61
2022/04/30 10:52:24;;;;;;;2.30;1.67;;;;;;;;;;4953161;29;20214;-63
2022/04/30 10:54:51;;;;;;;1.87;1.77;;;;;;;;;;4953057;29;20689;-61
2022/04/30 10:57:18;;;;;;;1.97;1.87;;;;;;;;;;4952812;29;20219;-63
2022/04/30 10:59:45;;;;;;;1.73;1.73;;;;;;;;;;4953234;29;20636;-62
2022/04/30 11:02:14;;;;;;;2.20;2.10;;;;;;;;;;4953298;29;20858;-62
2022/04/30 11:04:43;;;;;;;2.20;2.10;;;;;;;;;;4952506;28;20219;-62
2022/04/30 11:07:11;;;;;;;2.80;2.57;;;;;;;;;;4953000;29;20301;-65
2022/04/30 11:09:43;;;;;;;2.57;2.47;;;;;;;;;;4948063;29;20286;-63
2022/04/30 11:12:14;;;;;;;3.10;2.90;;;;;;;;;;4945141;29;20207;-62
2022/04/30 11:14:42;;;;;;;3.57;3.00;;;;;;;;;;4948942;29;20302;-61
2022/04/30 11:17:09;;;;;;;3.33;2.93;;;;;;;;;;4943248;29;20227;-61
2022/04/30 11:19:42;;;;;;;2.40;2.30;;;;;;;;;;4943355;29;20674;-61
2022/04/30 11:22:09;;;;;;;4.00;2.70;;;;;;;;;;4944385;29;20211;-61
2022/04/30 11:24:38;;;;;;;3.10;2.80;;;;;;;;;;4942986;29;20763;-61
2022/04/30 11:27:06;;;;;;;8.13;4.93;;;;;;;;;;4945753;29;20327;-61
2022/04/30 11:29:33;;;;;;;3.20;2.90;;;;;;;;;;4950335;29;20696;-62
2022/04/30 11:32:01;;;;;;;3.13;2.97;;;;;;;;;;4951945;29;20203;-62
2022/04/30 11:34:28;;;;;;;2.60;2.47;;;;;;;;;;4952475;29;20226;-62
2022/04/30 11:36:57;;;;;;;3.13;2.70;;;;;;;;;;4952095;29;20700;-62
2022/04/30 11:39:24;;;;;;;2.37;2.27;;;;;;;;;;4947992;29;20207;-62
2022/04/30 11:41:52;;;;;;;2.37;2.17;;;;;;;;;;4941633;28;20620;-62
2022/04/30 11:44:20;;;;;;;2.47;2.37;;;;;;;;;;4951066;29;20203;-62
2022/04/30 11:46:48;;;;;;;2.83;2.50;;;;;;;;;;4951264;28;20693;-62
2022/04/30 11:49:16;;;;;;;2.97;2.77;;;;;;;;;;4933864;29;20255;-60
2022/04/30 11:51:43;;;;;;;2.87;2.73;;;;;;;;;;4938133;29;20212;-61
2022/04/30 11:54:17;;;;;;;4.20;3.30;;;;;;;;;;4950998;28;20207;-58
2022/04/30 11:56:44;;;;;;;3.17;2.87;;;;;;;;;;4951065;29;20748;-62
2022/04/30 11:59:11;;;;;;;3.10;2.90;;;;;;;;;;4935901;29;20657;-60
2022/04/30 12:01:40;;;;;;;3.87;3.23;;;;;;;;;;4943915;29;20204;-63
2022/04/30 12:04:08;;;;;;;3.80;3.60;;;;;;;;;;4947021;29;20215;-61
2022/04/30 12:06:36;;;;;;;5.13;3.57;;;;;;;;;;4932292;29;20608;-61
2022/04/30 12:09:13;;;;;;;4.17;3.77;;;;;;;;;;4950737;29;20676;-61
2022/04/30 12:11:43;;;;;;;4.93;4.50;;;;;;;;;;4949340;29;20211;-61
2022/04/30 12:14:11;;;;;;;5.57;4.20;;;;;;;;;;4941086;29;20306;-65
2022/04/30 12:16:39;;;;;;;4.87;4.47;;;;;;;;;;4935028;29;20822;-64
2022/04/30 12:24:43;;;;;;;5.73;5.07;;;;;;;;;;4951384;29;20214;-59
2022/04/30 12:27:19;;;;;;;5.90;4.77;;;;;;;;;;4939480;29;20219;-59
2022/04/30 12:29:47;;;;;;;7.17;5.50;;;;;;;;;;4951515;29;20215;-63
2022/04/30 12:32:17;;;;;;;5.43;4.93;;;;;;;;;;4951649;29;20298;-62
2022/04/30 12:34:45;;;;;;;8.70;4.63;;;;;;;;;;4947372;29;20230;-60
2022/04/30 12:37:12;;;;;;;7.33;5.30;;;;;;;;;;4945556;29;20203;-61
2022/04/30 12:39:40;;;;;;;4.67;4.27;;;;;;;;;;4951350;28;20685;-61
2022/04/30 12:42:11;;;;;;;4.87;4.13;;;;;;;;;;4950470;29;20348;-61
2022/04/30 12:44:39;;;;;;;6.73;4.70;;;;;;;;;;4943067;29;20239;-61
2022/04/30 12:47:06;;;;;;;4.00;3.63;;;;;;;;;;4939816;29;20275;-59
2022/04/30 12:49:33;;;;;;;5.60;4.60;;;;;;;;;;4941508;29;20258;-63
2022/04/30 12:52:00;;;;;;;4.93;4.43;;;;;;;;;;4944515;29;20222;-64
2022/04/30 12:54:28;;;;;;;4.07;3.67;;;;;;;;;;4947215;28;20211;-63
2022/04/30 12:56:57;;;;;;;3.20;3.03;;;;;;;;;;4938084;29;20207;-63
2022/04/30 12:59:25;;;;;;;4.43;4.13;;;;;;;;;;4942809;29;20329;-63
2022/04/30 13:01:55;;;;;;;4.60;4.03;;;;;;;;;;4945922;29;20298;-61
2022/04/30 13:04:22;;;;;;;4.20;3.80;;;;;;;;;;4943975;29;20204;-62
2022/04/30 13:06:52;;;;;;;4.23;3.83;;;;;;;;;;4948467;29;20282;-63
2022/04/30 13:14:48;;;;;;;3.87;3.57;;;;;;;;;;4950927;29;20970;-62
2022/04/30 13:17:17;;;;;;;5.00;3.60;;;;;;;;;;4950461;29;20207;-62
2022/04/30 13:19:44;;;;;;;5.10;4.53;;;;;;;;;;4949760;29;20697;-62
2022/04/30 13:22:11;;;;;;;9.07;8.00;;;;;;;;;;4950632;29;20214;-62
2022/04/30 13:24:38;;;;;;;4.87;4.37;;;;;;;;;;4950686;29;20282;-62
2022/04/30 13:27:06;;;;;;;2.03;1.93;;;;;;;;;;4950549;29;20262;-62
2022/04/30 13:29:33;;;;;;;3.90;3.67;;;;;;;;;;4931567;29;20208;-63
2022/04/30 13:32:00;;;;;;;4.63;4.23;;;;;;;;;;4939526;29;20254;-62
2022/04/30 13:34:29;;;;;;;5.27;4.50;;;;;;;;;;4950532;29;20211;-63
2022/04/30 13:36:56;;;;;;;5.20;4.40;;;;;;;;;;4950728;29;20223;-63
2022/04/30 13:39:23;;;;;;;4.27;3.67;;;;;;;;;;4950597;29;20829;-62
2022/04/30 13:41:50;;;;;;;4.57;4.13;;;;;;;;;;4950462;28;20210;-63
2022/04/30 13:44:17;;;;;;;4.27;3.97;;;;;;;;;;4949952;29;20210;-63
2022/04/30 13:46:45;;;;;;;4.70;4.30;;;;;;;;;;4950024;29;20207;-60
2022/04/30 13:49:13;;;;;;;4.53;4.13;;;;;;;;;;4950181;29;20207;-62
2022/04/30 13:51:41;;;;;;;6.10;4.47;;;;;;;;;;4948429;29;20737;-61
2022/04/30 13:54:08;;;;;;;4.23;3.83;;;;;;;;;;4949116;29;20258;-66
2022/04/30 13:56:37;;;;;;;4.43;4.07;;;;;;;;;;4949134;29;20923;-67
2022/04/30 13:59:05;;;;;;;4.90;4.50;;;;;;;;;;4948097;29;20235;-60
2022/04/30 14:01:32;;;;;;;4.47;4.07;;;;;;;;;;4949134;28;20218;-62
2022/04/30 14:03:59;;;;;;;5.37;4.63;;;;;;;;;;4949312;29;20653;-62
2022/04/30 14:06:28;;;;;;;7.70;4.93;;;;;;;;;;4949481;28;20266;-61
2022/04/30 14:08:56;;;;;;;4.90;4.50;;;;;;;;;;4949522;28;20341;-60
2022/04/30 14:11:23;;;;;;;4.83;4.43;;;;;;;;;;4947183;29;20211;-61
2022/04/30 14:16:36;;;;;;;4.67;4.13;;;;;;;;;;4948800;29;20345;-62
2022/04/30 14:19:03;;;;;;;6.27;4.83;;;;;;;;;;4945733;29;20223;-62
2022/04/30 14:21:32;;;;;;;6.00;5.10;;;;;;;;;;4948516;29;20293;-64
2022/04/30 14:24:00;;;;;;;5.07;4.57;;;;;;;;;;4947829;29;20338;-63
2022/04/30 14:26:27;;;;;;;7.30;4.90;;;;;;;;;;4948919;28;20207;-61
2022/04/30 14:28:54;;;;;;;8.03;5.50;;;;;;;;;;4949444;28;20273;-63
2022/04/30 14:31:22;;;;;;;7.43;5.43;;;;;;;;;;4948839;29;20234;-64
2022/04/30 14:33:51;;;;;;;10.17;5.40;;;;;;;;;;4949641;28;20235;-60
2022/04/30 14:36:18;;;;;;;5.50;5.03;;;;;;;;;;4949810;29;20218;-62
2022/04/30 14:38:45;;;;;;;5.90;5.20;;;;;;;;;;4948801;29;20894;-61
2022/04/30 14:41:13;;;;;;;6.27;5.43;;;;;;;;;;4949195;29;20218;-62
2022/04/30 14:43:40;;;;;;;6.37;5.10;;;;;;;;;;4949119;29;20282;-61
2022/04/30 14:46:07;;;;;;;5.63;5.10;;;;;;;;;;4949634;29;20262;-62
2022/04/30 14:48:38;;;;;;;6.07;5.20;;;;;;;;;;4936958;29;20207;-61
2022/04/30 14:51:05;;;;;;;7.97;5.50;;;;;;;;;;4949897;29;20394;-62
2022/04/30 14:53:32;;;;;;;7.60;4.97;;;;;;;;;;4949378;29;20562;-62
2022/04/30 14:56:01;;;;;;;5.43;4.93;;;;;;;;;;4949455;29;20229;-63
2022/04/30 14:58:29;;;;;;;9.63;5.47;;;;;;;;;;4947951;28;20629;-63
2022/04/30 15:00:56;;;;;;;7.47;5.00;;;;;;;;;;4949133;29;20219;-62
2022/04/30 15:03:23;;;;;;;5.07;4.57;;;;;;;;;;4949644;29;20211;-64
2022/04/30 15:05:53;;;;;;;5.63;5.10;;;;;;;;;;4948982;29;20576;-62
2022/04/30 15:08:20;;;;;;;7.87;5.00;;;;;;;;;;4949168;29;20251;-62
2022/04/30 15:10:47;;;;;;;8.77;5.10;;;;;;;;;;4949049;29;20245;-62
2022/04/30 15:13:14;;;;;;;5.10;4.60;;;;;;;;;;4949260;29;20211;-61
2022/04/30 15:15:43;;;;;;;5.17;4.73;;;;;;;;;;4949347;29;20207;-61
2022/04/30 15:18:10;;;;;;;4.90;4.43;;;;;;;;;;4947838;28;20302;-62
2022/04/30 15:20:38;;;;;;;9.30;6.00;;;;;;;;;;4951958;29;20230;-63
2022/04/30 15:23:08;;;;;;;4.40;4.03;;;;;;;;;;4951707;28;20587;-63
2022/04/30 15:25:35;;;;;;;6.93;5.07;;;;;;;;;;4950227;29;20235;-62
2022/04/30 15:28:02;;;;;;;6.37;5.20;;;;;;;;;;4948521;29;20219;-61
2022/04/30 15:30:30;;;;;;;6.47;5.13;;;;;;;;;;4951735;28;20371;-60
2022/04/30 15:32:58;;;;;;;5.83;4.93;;;;;;;;;;4949647;28;20266;-61